createdAt,value
2018-06-20T00:06:51.753Z,15.60
2018-06-20T00:11:26.831Z,15.50
2018-06-20T00:16:01.253Z,15.50
2018-06-20T00:20:35.710Z,15.40
2018-06-20T00:25:10.192Z,15.40
2018-06-20T00:29:44.797Z,15.30
2018-06-20T00:34:19.133Z,15.30
2018-06-20T00:38:53.642Z,15.30
2018-06-20T00:43:27.997Z,15.20
2018-06-20T00:48:02.481Z,15.30
2018-06-20T00:57:10.773Z,15.10
2018-06-20T01:01:45.277Z,15.00
2018-06-20T01:06:19.573Z,15.00
2018-06-20T01:10:54.118Z,15.00
2018-06-20T01:15:28.421Z,15.00
2018-06-20T01:20:02.929Z,14.90
2018-06-20T01:24:37.355Z,14.90
2018-06-20T01:29:11.780Z,14.90
2018-06-20T01:33:46.589Z,14.80
2018-06-20T01:38:21.005Z,14.60
2018-06-20T01:42:55.457Z,14.60
2018-06-20T01:47:30.070Z,14.60
2018-06-20T01:52:04.402Z,14.60
2018-06-20T01:56:39.009Z,14.60
2018-06-20T02:01:13.329Z,14.50
2018-06-20T02:05:48.128Z,14.40
2018-06-20T02:10:22.592Z,14.30
2018-06-20T02:14:57.109Z,14.20
2018-06-20T02:19:32.092Z,14.20
2018-06-20T02:24:06.351Z,14.20
2018-06-20T02:28:41.892Z,14.30
2018-06-20T02:33:16.098Z,14.30
2018-06-20T02:37:50.353Z,14.30
2018-06-20T02:42:24.714Z,14.20
2018-06-20T02:46:59.194Z,14.10
2018-06-20T02:51:33.939Z,14.10
2018-06-20T02:56:08.518Z,14.00
2018-06-20T03:05:17.192Z,14.00
2018-06-20T03:09:51.562Z,14.00
2018-06-20T03:14:26.105Z,13.90
2018-06-20T03:19:00.466Z,13.90
2018-06-20T03:23:35.058Z,13.80
2018-06-20T03:28:09.437Z,13.80
2018-06-20T03:32:43.830Z,13.90
2018-06-20T03:37:18.553Z,13.80
2018-06-20T03:41:52.935Z,13.90
2018-06-20T03:46:27.205Z,13.80
2018-06-20T03:51:02.166Z,13.90
2018-06-20T03:55:36.518Z,13.90
2018-06-20T04:00:11.866Z,13.80
2018-06-20T04:04:46.180Z,13.80
2018-06-20T04:09:20.592Z,13.80
2018-06-20T04:13:55.041Z,13.90
2018-06-20T04:18:44.545Z,13.90
2018-06-20T04:23:18.880Z,13.90
2018-06-20T04:27:53.229Z,14.00
2018-06-20T04:32:27.791Z,14.00
2018-06-20T04:37:02.321Z,14.10
2018-06-20T04:41:36.873Z,14.10
2018-06-20T04:46:11.349Z,14.30
2018-06-20T04:50:46.262Z,14.40
2018-06-20T04:55:21.300Z,14.60
2018-06-20T04:59:56.890Z,14.80
2018-06-20T05:04:31.214Z,15.00
2018-06-20T05:09:11.189Z,15.20
2018-06-20T05:13:46.240Z,15.30
2018-06-20T05:18:20.641Z,15.50
2018-06-20T05:22:55.148Z,15.70
2018-06-20T05:27:29.774Z,15.90
2018-06-20T05:32:04.633Z,16.00
2018-06-20T05:36:39.198Z,16.30
2018-06-20T05:41:13.832Z,16.40
2018-06-20T05:45:48.267Z,16.70
2018-06-20T05:50:22.677Z,17.00
2018-06-20T05:54:57.041Z,17.20
2018-06-20T05:59:31.474Z,17.50
2018-06-20T06:04:05.698Z,17.70
2018-06-20T06:08:40.406Z,18.00
2018-06-20T06:13:14.813Z,18.20
2018-06-20T06:17:49.388Z,18.50
2018-06-20T06:22:23.613Z,18.70
2018-06-20T06:26:58.186Z,19.00
2018-06-20T06:31:32.819Z,19.20
2018-06-20T06:36:07.134Z,19.40
2018-06-20T06:40:41.485Z,19.70
2018-06-20T06:45:16.010Z,19.90
2018-06-20T06:49:50.598Z,20.20
2018-06-20T06:54:24.975Z,20.50
2018-06-20T06:59:00.228Z,20.90
2018-06-20T07:03:35.182Z,21.20
2018-06-20T07:08:09.634Z,21.50
2018-06-20T07:12:44.616Z,21.80
2018-06-20T07:17:19.172Z,22.10
2018-06-20T07:21:53.450Z,22.40
2018-06-20T07:26:27.793Z,22.60
2018-06-20T07:31:01.997Z,22.90
2018-06-20T07:35:36.519Z,23.30
2018-06-20T07:40:10.777Z,23.50
2018-06-20T07:44:45.247Z,23.80
2018-06-20T07:49:20.494Z,24.00
2018-06-20T07:53:55.017Z,24.10
2018-06-20T07:58:34.664Z,24.50
2018-06-20T08:03:16.877Z,24.90
2018-06-20T08:07:56.673Z,25.20
2018-06-20T08:12:36.839Z,25.60
2018-06-20T08:17:16.651Z,25.80
2018-06-20T08:21:50.899Z,26.30
2018-06-20T08:26:25.353Z,26.70
2018-06-20T08:31:00.061Z,27.00
2018-06-20T08:35:34.932Z,27.30
2018-06-20T08:40:09.387Z,27.70
2018-06-20T08:44:44.009Z,28.80
2018-06-20T08:49:18.649Z,30.40
2018-06-20T08:53:53.848Z,31.80
2018-06-20T08:58:28.442Z,33.10
2018-06-20T09:03:03.110Z,33.90
2018-06-20T09:07:42.835Z,34.70
2018-06-20T09:12:22.545Z,35.40
2018-06-20T09:17:02.107Z,35.60
2018-06-20T09:21:37.244Z,36.10
2018-06-20T09:26:11.644Z,36.40
2018-06-20T09:30:46.035Z,36.60
2018-06-20T09:35:20.529Z,36.50
2018-06-20T09:39:54.974Z,37.00
2018-06-20T09:44:29.416Z,37.60
2018-06-20T09:49:04.262Z,38.50
2018-06-20T09:53:39.541Z,39.00
2018-06-20T09:58:14.081Z,39.00
2018-06-20T10:02:53.636Z,38.60
2018-06-20T10:07:33.467Z,38.40
2018-06-20T10:12:12.838Z,38.00
2018-06-20T10:16:47.111Z,38.20
2018-06-20T10:21:21.965Z,38.60
2018-06-20T10:25:57.215Z,38.60
2018-06-20T10:30:32.228Z,38.90
2018-06-20T10:35:07.339Z,39.20
2018-06-20T10:39:41.851Z,39.20
2018-06-20T10:44:17.417Z,39.40
2018-06-20T10:48:51.942Z,39.00
2018-06-20T10:53:26.739Z,39.10
2018-06-20T10:58:06.629Z,39.50
2018-06-20T11:02:46.269Z,40.30
2018-06-20T11:07:25.706Z,39.50
2018-06-20T11:12:06.010Z,39.00
2018-06-20T11:16:40.356Z,39.80
2018-06-20T11:25:48.745Z,40.10
2018-06-20T11:30:23.397Z,41.20
2018-06-20T11:34:57.837Z,41.70
2018-06-20T11:39:32.240Z,41.50
2018-06-20T11:44:06.717Z,41.60
2018-06-20T11:53:15.524Z,41.70
2018-06-20T12:02:33.040Z,38.90
2018-06-20T12:07:13.385Z,38.60
2018-06-20T12:11:54.147Z,38.80
2018-06-20T12:16:28.506Z,39.10
2018-06-20T12:21:09.226Z,39.40
2018-06-20T12:25:49.989Z,39.90
2018-06-20T12:30:29.866Z,40.50
2018-06-20T12:35:10.754Z,41.00
2018-06-20T12:39:49.952Z,41.70
2018-06-20T12:44:31.145Z,42.30
2018-06-20T12:49:05.536Z,42.00
2018-06-20T12:53:39.849Z,40.90
2018-06-20T12:58:14.351Z,41.00
2018-06-20T13:02:48.602Z,41.50
2018-06-20T13:07:23.501Z,41.20
2018-06-20T13:11:58.125Z,41.00
2018-06-20T13:16:32.630Z,40.80
2018-06-20T13:21:07.210Z,40.70
2018-06-20T13:25:42.760Z,40.00
2018-06-20T13:30:17.413Z,38.70
2018-06-20T13:34:57.046Z,37.60
2018-06-20T13:39:36.668Z,36.90
2018-06-20T13:44:11.313Z,36.70
2018-06-20T13:48:45.778Z,36.30
2018-06-20T13:53:20.405Z,36.20
2018-06-20T13:57:54.756Z,36.00
2018-06-20T14:02:29.118Z,35.60
2018-06-20T14:07:03.509Z,35.10
2018-06-20T14:11:38.050Z,34.50
2018-06-20T14:16:12.437Z,34.10
2018-06-20T14:20:52.423Z,34.30
2018-06-20T14:25:26.746Z,34.10
2018-06-20T14:30:01.645Z,34.00
2018-06-20T14:34:41.373Z,34.10
2018-06-20T14:39:20.875Z,34.10
2018-06-20T14:44:00.370Z,33.90
2018-06-20T14:48:34.854Z,33.40
2018-06-20T14:53:09.425Z,33.20
2018-06-20T14:57:43.921Z,33.20
2018-06-20T15:02:18.281Z,33.30
2018-06-20T15:06:52.755Z,33.10
2018-06-20T15:11:27.526Z,32.70
2018-06-20T15:16:07.671Z,32.40
2018-06-20T15:25:17.333Z,32.20
2018-06-20T15:29:57.126Z,32.40
2018-06-20T15:34:36.853Z,32.40
2018-06-20T15:39:11.353Z,32.20
2018-06-20T15:43:45.947Z,31.90
2018-06-20T15:48:21.182Z,32.10
2018-06-20T15:52:55.558Z,32.40
2018-06-20T15:57:30.289Z,32.50
2018-06-20T16:06:38.498Z,32.40
2018-06-20T16:11:13.193Z,32.40
2018-06-20T16:15:47.902Z,32.50
2018-06-20T16:20:28.034Z,32.40
2018-06-20T16:25:07.470Z,32.30
2018-06-20T16:29:47.285Z,32.10
2018-06-20T16:34:22.097Z,32.10
2018-06-20T16:38:56.646Z,32.00
2018-06-20T16:43:31.165Z,32.00
2018-06-20T16:48:05.677Z,32.00
2018-06-20T16:52:40.281Z,32.00
2018-06-20T16:57:14.753Z,31.80
2018-06-20T17:01:54.477Z,31.60
2018-06-20T17:06:28.942Z,31.50
2018-06-20T17:11:03.306Z,31.50
2018-06-20T17:15:43.070Z,31.50
2018-06-20T17:20:22.898Z,31.50
2018-06-20T17:25:02.476Z,31.40
2018-06-20T17:29:37.007Z,31.30
2018-06-20T17:34:11.654Z,31.30
2018-06-20T17:38:46.223Z,31.10
2018-06-20T17:43:21.233Z,31.00
2018-06-20T17:47:57.051Z,30.90
2018-06-20T17:52:31.509Z,30.70
2018-06-20T17:57:07.144Z,30.60
2018-06-20T18:01:41.635Z,30.50
2018-06-20T18:06:23.015Z,30.40
2018-06-20T18:11:02.937Z,30.30
2018-06-20T18:15:42.511Z,30.10
2018-06-20T18:20:17.015Z,29.90
2018-06-20T18:24:51.333Z,29.70
2018-06-20T18:29:25.752Z,29.50
2018-06-20T18:33:59.961Z,29.40
2018-06-20T18:38:34.174Z,29.20
2018-06-20T18:43:08.434Z,29.00
2018-06-20T18:47:48.129Z,28.80
2018-06-20T18:52:22.566Z,28.50
2018-06-20T18:56:56.852Z,28.30
2018-06-20T19:01:36.486Z,28.10
2018-06-20T19:06:16.417Z,27.70
2018-06-20T19:10:50.849Z,27.40
2018-06-20T19:15:26.235Z,27.00
2018-06-20T19:20:00.655Z,26.70
2018-06-20T19:24:35.197Z,26.50
2018-06-20T19:29:09.494Z,26.20
2018-06-20T19:33:44.014Z,25.90
2018-06-20T19:38:18.404Z,25.70
2018-06-20T19:42:53.170Z,25.40
2018-06-20T19:47:28.110Z,25.20
2018-06-20T19:52:02.932Z,24.90
2018-06-20T19:56:37.537Z,24.70
2018-06-20T20:01:12.642Z,24.40
2018-06-20T20:05:47.066Z,24.20
2018-06-20T20:10:22.022Z,23.90
2018-06-20T20:14:56.363Z,23.70
2018-06-20T20:19:30.630Z,23.50
2018-06-20T20:24:05.485Z,23.30
2018-06-20T20:28:40.238Z,23.20
2018-06-20T20:33:14.723Z,23.00
2018-06-20T20:37:49.015Z,22.80
2018-06-20T20:42:23.309Z,22.60
2018-06-20T20:46:57.685Z,22.50
2018-06-20T20:51:31.929Z,22.40
2018-06-20T20:56:06.494Z,22.20
2018-06-20T21:00:41.147Z,22.00
2018-06-20T21:09:49.718Z,21.80
2018-06-20T21:14:24.117Z,21.70
2018-06-20T21:18:58.988Z,21.50
2018-06-20T21:23:33.428Z,21.40
2018-06-20T21:28:08.538Z,21.30
2018-06-20T21:32:43.061Z,21.20
2018-06-20T21:37:17.598Z,21.10
2018-06-20T21:41:52.042Z,20.90
2018-06-20T21:46:26.440Z,20.80
2018-06-20T21:51:00.640Z,20.60
2018-06-20T21:55:35.058Z,20.50
2018-06-20T22:00:11.021Z,20.30
2018-06-20T22:04:46.153Z,20.20
2018-06-20T22:09:20.727Z,20.10
2018-06-20T22:13:54.962Z,20.10
2018-06-20T22:18:29.769Z,20.10
2018-06-20T22:23:04.345Z,20.10
2018-06-20T22:27:39.125Z,20.00
2018-06-20T22:32:13.958Z,19.90
2018-06-20T22:36:48.611Z,19.90
2018-06-20T22:41:23.091Z,19.70
2018-06-20T22:45:57.572Z,19.60
2018-06-20T22:50:32.117Z,19.50
2018-06-20T22:55:06.641Z,19.50
2018-06-20T23:04:15.335Z,19.40
2018-06-20T23:08:49.855Z,19.20
2018-06-20T23:13:24.322Z,19.20
2018-06-20T23:17:58.829Z,19.10
2018-06-20T23:22:33.496Z,19.00
2018-06-20T23:27:07.991Z,19.00
2018-06-20T23:31:42.473Z,18.90
2018-06-20T23:36:16.755Z,18.90
2018-06-20T23:40:51.333Z,18.90
2018-06-20T23:45:25.761Z,18.80
2018-06-20T23:50:00.233Z,18.70
2018-06-20T23:54:34.826Z,18.60
2018-06-20T23:59:09.397Z,18.60
